aviador You're here:

KMAW Decoded Metar

in
Report Time2017-07-22 10:35:00
UTC Time2017-07-22 10:36:02
Flight Rules vfr VFR
Wind190° at 04 kt
W.Decomp.*RWY 18: 3.9 kt HW 0.7 kt RCW
RWY 14: 2.6 kt HW 3.1 kt RCW
W.Rank190° ranks 2
Current wind is below 190° avg. (7.6)
Visibility9999 m
Phenomena:N/A
Clouds:N/A
Expected CloudBase > 1,200 ft AGL from Temp-Dew spread
CeilingNone
Temp26°C
Dew Point23°C (84% RH)
QNH1014 hPa
Raw Report
KMAW 221035Z AUTO 19004KT 7SM CLR 26/23 A2993 RMK AO2=

Extra information for KMAW:More info

Social comments